createdAt,value
2018-11-02T00:01:35.785Z,8.70
2018-11-02T00:04:04.894Z,8.80
2018-11-02T00:06:34.534Z,9.43
2018-11-02T00:09:03.911Z,8.40
2018-11-02T00:11:33.354Z,4.90
2018-11-02T00:14:02.862Z,6.17
2018-11-02T00:16:32.191Z,5.53
2018-11-02T00:19:01.565Z,8.23
2018-11-02T00:21:30.869Z,5.83
2018-11-02T00:24:00.303Z,5.42
2018-11-02T00:26:29.544Z,8.03
2018-11-02T00:28:58.672Z,7.33
2018-11-02T00:31:28.052Z,6.43
2018-11-02T00:33:57.461Z,4.23
2018-11-02T00:36:26.883Z,3.07
2018-11-02T00:38:56.465Z,6.67
2018-11-02T00:41:25.684Z,3.13
2018-11-02T00:43:55.143Z,3.30
2018-11-02T00:46:24.524Z,3.47
2018-11-02T00:48:53.787Z,3.17
2018-11-02T00:51:22.998Z,3.37
2018-11-02T00:53:52.456Z,5.00
2018-11-02T00:56:22.116Z,4.03
2018-11-02T00:58:51.412Z,4.40
2018-11-02T01:01:20.740Z,4.67
2018-11-02T01:03:50.021Z,5.87
2018-11-02T01:06:19.193Z,8.47
2018-11-02T01:08:48.804Z,8.17
2018-11-02T01:11:18.181Z,9.23
2018-11-02T01:13:47.731Z,7.33
2018-11-02T01:16:17.161Z,4.77
2018-11-02T01:18:46.631Z,6.17
2018-11-02T01:21:16.440Z,9.03
2018-11-02T01:23:45.801Z,8.33
2018-11-02T01:26:15.159Z,7.03
2018-11-02T01:28:44.650Z,7.20
2018-11-02T01:31:14.191Z,6.30
2018-11-02T01:33:43.661Z,5.47
2018-11-02T01:36:13.081Z,8.30
2018-11-02T01:38:42.420Z,8.73
2018-11-02T01:41:11.788Z,13.00
2018-11-02T01:43:41.157Z,4.53
2018-11-02T01:46:10.442Z,6.70
2018-11-02T01:48:39.878Z,3.27
2018-11-02T01:51:09.277Z,3.67
2018-11-02T01:53:38.493Z,4.50
2018-11-02T01:56:07.985Z,7.37
2018-11-02T01:58:37.388Z,4.37
2018-11-02T02:01:06.841Z,1.60
2018-11-02T02:03:36.060Z,3.33
2018-11-02T02:06:05.796Z,2.53
2018-11-02T02:08:35.114Z,4.00
2018-11-02T02:11:04.311Z,4.83
2018-11-02T02:13:33.604Z,7.23
2018-11-02T02:16:02.932Z,5.53
2018-11-02T02:18:32.286Z,4.90
2018-11-02T02:21:01.503Z,7.87
2018-11-02T02:23:30.965Z,7.67
2018-11-02T02:26:00.308Z,4.83
2018-11-02T02:28:29.728Z,7.53
2018-11-02T02:30:59.236Z,4.37
2018-11-02T02:33:28.635Z,3.20
2018-11-02T02:35:58.013Z,5.63
2018-11-02T02:38:27.477Z,4.43
2018-11-02T02:40:56.834Z,5.73
2018-11-02T02:43:26.009Z,1.87
2018-11-02T02:45:55.571Z,3.70
2018-11-02T02:48:24.973Z,11.73
2018-11-02T02:50:54.071Z,4.87
2018-11-02T02:53:23.474Z,5.97
2018-11-02T02:55:52.941Z,4.03
2018-11-02T02:58:22.194Z,4.20
2018-11-02T03:00:51.864Z,4.77
2018-11-02T03:03:21.145Z,4.13
2018-11-02T03:05:50.570Z,7.83
2018-11-02T03:08:19.736Z,5.73
2018-11-02T03:10:49.195Z,8.90
2018-11-02T03:13:18.559Z,4.93
2018-11-02T03:15:47.798Z,2.07
2018-11-02T03:18:17.113Z,6.37
2018-11-02T03:20:46.355Z,6.53
2018-11-02T03:23:15.905Z,6.60
2018-11-02T03:25:45.060Z,6.03
2018-11-02T03:28:14.339Z,6.45
2018-11-02T03:30:43.733Z,6.80
2018-11-02T03:33:13.081Z,6.63
2018-11-02T03:35:42.601Z,6.90
2018-11-02T03:38:11.820Z,4.87
2018-11-02T03:40:41.072Z,6.10
2018-11-02T03:43:10.513Z,5.40
2018-11-02T03:45:39.952Z,3.57
2018-11-02T03:48:09.282Z,6.37
2018-11-02T03:50:38.682Z,4.53
2018-11-02T03:53:08.041Z,6.87
2018-11-02T03:55:37.310Z,2.87
2018-11-02T03:58:06.797Z,4.67
2018-11-02T04:00:36.323Z,4.37
2018-11-02T04:03:06.029Z,6.40
2018-11-02T04:05:35.314Z,5.63
2018-11-02T04:08:04.629Z,8.30
2018-11-02T04:10:34.139Z,6.20
2018-11-02T04:13:03.286Z,9.17
2018-11-02T04:15:32.734Z,6.50
2018-11-02T04:18:01.917Z,4.43
2018-11-02T04:20:31.234Z,5.73
2018-11-02T04:23:00.495Z,7.53
2018-11-02T04:25:30.245Z,4.23
2018-11-02T04:27:59.651Z,4.33
2018-11-02T04:30:28.980Z,13.57
2018-11-02T04:32:58.473Z,7.97
2018-11-02T04:35:27.876Z,10.25
2018-11-02T04:37:57.262Z,13.60
2018-11-02T04:40:27.074Z,6.93
2018-11-02T04:42:56.203Z,7.33
2018-11-02T04:45:41.494Z,9.03
2018-11-02T04:48:12.303Z,8.30
2018-11-02T04:50:42.399Z,3.67
2018-11-02T04:53:12.176Z,3.67
2018-11-02T04:55:41.470Z,3.83
2018-11-02T04:58:10.807Z,6.63
2018-11-02T05:00:40.241Z,4.17
2018-11-02T05:03:09.713Z,3.93
2018-11-02T05:05:38.913Z,7.13
2018-11-02T05:08:08.451Z,6.13
2018-11-02T05:10:37.558Z,3.40
2018-11-02T05:13:06.914Z,8.28
2018-11-02T05:15:36.173Z,9.43
2018-11-02T05:18:05.527Z,6.60
2018-11-02T05:20:34.795Z,7.80
2018-11-02T05:23:03.980Z,16.17
2018-11-02T05:25:33.315Z,11.13
2018-11-02T05:28:02.526Z,15.50
2018-11-02T05:30:31.863Z,13.60
2018-11-02T05:33:01.017Z,11.93
2018-11-02T05:35:30.204Z,15.30
2018-11-02T05:37:59.538Z,12.23
2018-11-02T05:40:28.714Z,13.23
2018-11-02T05:42:57.935Z,14.27
2018-11-02T05:45:30.822Z,24.33
2018-11-02T05:48:00.202Z,42.03
2018-11-02T05:50:29.478Z,10.93
2018-11-02T05:52:59.105Z,8.50
2018-11-02T05:55:28.282Z,8.67
2018-11-02T05:57:57.607Z,9.90
2018-11-02T06:00:27.041Z,9.23
2018-11-02T06:02:56.415Z,7.53
2018-11-02T06:05:25.723Z,12.07
2018-11-02T06:07:55.197Z,6.87
2018-11-02T06:10:24.636Z,9.20
2018-11-02T06:12:53.812Z,5.00
2018-11-02T06:15:23.469Z,3.60
2018-11-02T06:17:52.834Z,11.67
2018-11-02T06:20:22.042Z,14.47
2018-11-02T06:22:51.249Z,9.73
2018-11-02T06:25:20.739Z,7.03
2018-11-02T06:27:50.253Z,10.43
2018-11-02T06:30:19.666Z,8.73
2018-11-02T06:32:49.068Z,9.03
2018-11-02T06:35:18.089Z,10.07
2018-11-02T06:37:47.364Z,10.50
2018-11-02T06:40:16.952Z,40.17
2018-11-02T06:42:46.359Z,73.27
2018-11-02T06:45:15.726Z,15.87
2018-11-02T06:47:44.961Z,11.07
2018-11-02T06:50:14.403Z,8.07
2018-11-02T06:52:43.780Z,7.80
2018-11-02T06:55:13.168Z,7.13
2018-11-02T06:57:42.534Z,8.37
2018-11-02T07:00:13.673Z,7.97
2018-11-02T07:02:43.235Z,9.53
2018-11-02T07:05:12.615Z,12.03
2018-11-02T07:07:44.535Z,9.90
2018-11-02T07:10:13.479Z,13.67
2018-11-02T07:12:45.827Z,10.32
2018-11-02T07:15:15.233Z,11.33
2018-11-02T07:17:44.452Z,7.03
2018-11-02T07:20:13.715Z,9.70
2018-11-02T07:22:42.877Z,7.63
2018-11-02T07:25:12.046Z,7.60
2018-11-02T07:27:41.214Z,7.50
2018-11-02T07:30:11.275Z,6.80
2018-11-02T07:32:40.673Z,6.73
2018-11-02T07:35:10.900Z,12.33
2018-11-02T07:37:39.948Z,11.47
2018-11-02T07:40:10.629Z,12.27
2018-11-02T07:42:40.155Z,10.17
2018-11-02T07:45:09.976Z,10.63
2018-11-02T07:47:39.825Z,6.83
2018-11-02T07:50:10.747Z,10.28
2018-11-02T07:52:39.844Z,9.63
2018-11-02T07:55:10.616Z,10.10
2018-11-02T07:57:40.022Z,7.63
2018-11-02T08:00:14.360Z,9.13
2018-11-02T08:02:46.986Z,14.93
2018-11-02T08:05:16.740Z,9.95
2018-11-02T08:07:45.854Z,9.80
2018-11-02T08:10:14.911Z,9.47
2018-11-02T08:12:44.002Z,9.57
2018-11-02T08:15:13.746Z,10.00
2018-11-02T08:17:43.101Z,6.90
2018-11-02T08:20:13.450Z,8.60
2018-11-02T08:22:43.079Z,10.25
2018-11-02T08:25:12.786Z,8.53
2018-11-02T08:27:42.193Z,9.50
2018-11-02T08:30:12.265Z,8.33
2018-11-02T08:32:41.600Z,7.40
2018-11-02T08:35:12.534Z,6.15
2018-11-02T08:37:42.062Z,7.97
2018-11-02T08:40:12.785Z,9.40
2018-11-02T08:42:42.288Z,9.28
2018-11-02T08:45:11.920Z,8.78
2018-11-02T08:47:41.033Z,9.75
2018-11-02T08:50:11.034Z,6.28
2018-11-02T08:52:40.159Z,7.22
2018-11-02T08:55:09.430Z,8.00
2018-11-02T08:57:38.950Z,7.78
2018-11-02T09:00:09.928Z,7.83
2018-11-02T09:02:39.169Z,6.25
2018-11-02T09:05:08.567Z,11.70
2018-11-02T09:07:38.155Z,9.15
2018-11-02T09:10:09.428Z,11.43
2018-11-02T09:12:38.543Z,6.28
2018-11-02T09:15:07.935Z,8.83
2018-11-02T09:17:37.492Z,9.13
2018-11-02T09:20:06.912Z,5.28
2018-11-02T09:22:36.280Z,6.67
2018-11-02T09:25:06.231Z,6.95
2018-11-02T09:27:35.622Z,7.42
2018-11-02T09:30:04.880Z,6.22
2018-11-02T09:32:34.250Z,6.15
2018-11-02T09:35:03.746Z,6.78
2018-11-02T09:37:33.223Z,3.50
2018-11-02T09:40:02.856Z,8.70
2018-11-02T09:42:32.338Z,7.00
2018-11-02T09:45:02.000Z,7.25
2018-11-02T09:47:31.378Z,6.37
2018-11-02T09:50:00.744Z,7.00
2018-11-02T09:52:30.417Z,6.95
2018-11-02T09:54:59.899Z,8.53
2018-11-02T09:57:29.150Z,7.08
2018-11-02T09:59:58.286Z,6.87
2018-11-02T10:02:27.813Z,7.53
2018-11-02T10:04:56.955Z,8.38
2018-11-02T10:07:26.098Z,8.58
2018-11-02T10:09:55.487Z,6.08
2018-11-02T10:12:24.802Z,7.47
2018-11-02T10:14:54.327Z,5.30
2018-11-02T10:17:23.608Z,6.12
2018-11-02T10:19:53.112Z,9.93
2018-11-02T10:22:22.570Z,7.62
2018-11-02T10:24:52.172Z,8.93
2018-11-02T10:27:21.403Z,11.40
2018-11-02T10:29:50.765Z,12.23
2018-11-02T10:32:20.022Z,8.15
2018-11-02T10:34:49.534Z,7.67
2018-11-02T10:37:18.846Z,6.58
2018-11-02T10:39:48.208Z,8.20
2018-11-02T10:42:17.680Z,6.53
2018-11-02T10:44:47.150Z,8.68
2018-11-02T10:47:16.550Z,7.33
2018-11-02T10:49:45.941Z,8.13
2018-11-02T10:52:15.273Z,8.10
2018-11-02T10:54:44.747Z,7.90
2018-11-02T10:57:14.276Z,8.53
2018-11-02T10:59:43.679Z,5.90
2018-11-02T11:02:37.431Z,8.68
2018-11-02T11:05:07.713Z,6.25
2018-11-02T11:07:37.234Z,6.95
2018-11-02T11:10:08.456Z,8.35
2018-11-02T11:12:37.985Z,5.72
2018-11-02T11:15:07.721Z,8.53
2018-11-02T11:17:37.437Z,5.80
2018-11-02T11:20:12.601Z,8.58
2018-11-02T11:22:42.192Z,8.50
2018-11-02T11:25:13.454Z,6.65
2018-11-02T11:27:42.856Z,7.78
2018-11-02T11:30:19.585Z,10.05
2018-11-02T11:32:49.962Z,11.57
2018-11-02T11:35:19.976Z,10.10
2018-11-02T11:37:49.297Z,9.23
2018-11-02T11:40:20.223Z,9.18
2018-11-02T11:42:49.719Z,8.90
2018-11-02T11:45:19.816Z,8.38
2018-11-02T11:47:49.248Z,7.70
2018-11-02T11:50:27.746Z,7.37
2018-11-02T11:52:57.217Z,7.28
2018-11-02T11:55:26.442Z,5.90
2018-11-02T11:57:55.845Z,9.38
2018-11-02T12:00:25.238Z,4.42
2018-11-02T12:02:54.662Z,9.08
2018-11-02T12:05:24.571Z,8.78
2018-11-02T12:07:53.993Z,9.08
2018-11-02T12:10:24.505Z,6.72
2018-11-02T12:12:54.133Z,9.13
2018-11-02T12:15:24.173Z,6.28
2018-11-02T12:17:53.741Z,8.73
2018-11-02T12:20:26.923Z,7.40
2018-11-02T12:22:57.487Z,9.98
2018-11-02T12:25:26.954Z,7.33
2018-11-02T12:27:56.080Z,12.30
2018-11-02T12:30:25.587Z,7.42
2018-11-02T12:32:55.342Z,7.92
2018-11-02T12:35:24.794Z,9.28
2018-11-02T12:37:53.923Z,7.30
2018-11-02T12:40:24.235Z,7.55
2018-11-02T12:42:54.253Z,8.68
2018-11-02T12:45:23.750Z,7.33
2018-11-02T12:47:53.109Z,12.95
2018-11-02T12:50:29.362Z,8.90
2018-11-02T12:52:59.639Z,11.05
2018-11-02T12:55:28.918Z,10.75
2018-11-02T12:57:58.222Z,9.25
2018-11-02T13:00:28.561Z,8.08
2018-11-02T13:02:58.193Z,6.45
2018-11-02T13:05:27.445Z,7.30
2018-11-02T13:07:56.777Z,7.53
2018-11-02T13:10:27.094Z,7.95
2018-11-02T13:12:56.611Z,9.90
2018-11-02T13:15:26.503Z,7.95
2018-11-02T13:17:55.899Z,8.73
2018-11-02T13:20:25.396Z,8.78
2018-11-02T13:22:54.628Z,13.35
2018-11-02T13:25:23.933Z,7.97
2018-11-02T13:27:53.528Z,9.05
2018-11-02T13:30:25.053Z,9.25
2018-11-02T13:32:54.484Z,8.63
2018-11-02T13:35:23.791Z,9.98
2018-11-02T13:37:53.174Z,10.23
2018-11-02T13:40:22.476Z,6.78
2018-11-02T13:42:54.070Z,7.12
2018-11-02T13:45:23.557Z,12.10
2018-11-02T13:47:52.864Z,10.85
2018-11-02T13:50:22.234Z,13.53
2018-11-02T13:52:51.278Z,8.38
2018-11-02T13:55:20.575Z,8.23
2018-11-02T13:57:49.993Z,7.50
2018-11-02T14:00:19.690Z,5.65
2018-11-02T14:02:49.092Z,9.90
2018-11-02T14:05:18.713Z,9.48
2018-11-02T14:07:48.064Z,10.30
2018-11-02T14:10:17.661Z,6.78
2018-11-02T14:12:47.034Z,9.18
2018-11-02T14:15:17.122Z,8.43
2018-11-02T14:17:46.609Z,11.38
2018-11-02T14:20:16.121Z,9.70
2018-11-02T14:22:45.414Z,12.03
2018-11-02T14:25:15.866Z,12.25
2018-11-02T14:27:45.389Z,8.95
2018-11-02T14:30:16.088Z,9.10
2018-11-02T14:32:45.791Z,9.20
2018-11-02T14:35:15.109Z,9.88
2018-11-02T14:37:44.370Z,6.95
2018-11-02T14:40:13.788Z,7.17
2018-11-02T14:42:43.459Z,7.45
2018-11-02T14:45:16.633Z,9.18
2018-11-02T14:47:46.528Z,7.87
2018-11-02T14:50:15.848Z,6.95
2018-11-02T14:52:45.306Z,6.37
2018-11-02T14:55:14.711Z,10.53
2018-11-02T14:57:44.164Z,7.97
2018-11-02T15:00:13.751Z,7.72
2018-11-02T15:02:43.431Z,8.13
2018-11-02T15:05:13.903Z,10.72
2018-11-02T15:07:43.809Z,7.62
2018-11-02T15:10:13.290Z,8.40
2018-11-02T15:12:42.605Z,10.00
2018-11-02T15:15:12.126Z,8.30
2018-11-02T15:17:41.407Z,9.63
2018-11-02T15:20:12.456Z,8.60
2018-11-02T15:22:41.871Z,9.08
2018-11-02T15:25:11.463Z,7.00
2018-11-02T15:27:40.803Z,7.50
2018-11-02T15:30:11.725Z,8.05
2018-11-02T15:32:41.212Z,10.00
2018-11-02T15:35:11.231Z,8.75
2018-11-02T15:37:40.447Z,3.77
2018-11-02T15:40:11.057Z,5.47
2018-11-02T15:42:40.668Z,9.40
2018-11-02T15:45:12.112Z,4.72
2018-11-02T15:47:41.417Z,4.92
2018-11-02T15:50:11.687Z,8.20
2018-11-02T15:52:41.525Z,9.70
2018-11-02T15:55:11.982Z,6.10
2018-11-02T15:57:41.403Z,8.00
2018-11-02T16:00:20.696Z,9.18
2018-11-02T16:02:51.393Z,6.78
2018-11-02T16:05:22.725Z,9.85
2018-11-02T16:07:51.881Z,5.17
2018-11-02T16:10:21.438Z,6.55
2018-11-02T16:12:51.002Z,8.53
2018-11-02T16:15:20.413Z,7.12
2018-11-02T16:17:49.858Z,8.07
2018-11-02T16:20:19.143Z,9.53
2018-11-02T16:22:48.802Z,9.43
2018-11-02T16:25:18.261Z,9.40
2018-11-02T16:27:47.437Z,8.75
2018-11-02T16:30:16.840Z,11.90
2018-11-02T16:32:46.367Z,7.67
2018-11-02T16:35:15.657Z,8.15
2018-11-02T16:37:45.029Z,9.37
2018-11-02T16:40:16.190Z,7.23
2018-11-02T16:42:46.214Z,9.70
2018-11-02T16:45:16.022Z,9.73
2018-11-02T16:47:45.542Z,9.17
2018-11-02T16:50:15.700Z,9.40
2018-11-02T16:52:45.707Z,11.27
2018-11-02T16:55:15.218Z,16.32
2018-11-02T16:57:44.960Z,12.27
2018-11-02T17:00:23.961Z,7.23
2018-11-02T17:02:53.827Z,11.40
2018-11-02T17:05:23.437Z,15.00
2018-11-02T17:07:52.957Z,8.67
2018-11-02T17:10:22.455Z,16.73
2018-11-02T17:12:51.782Z,10.28
2018-11-02T17:15:20.916Z,12.88
2018-11-02T17:17:50.344Z,12.10
2018-11-02T17:20:19.741Z,13.70
2018-11-02T17:22:48.955Z,10.13
2018-11-02T17:25:18.547Z,11.47
2018-11-02T17:27:47.852Z,11.27
2018-11-02T17:30:18.356Z,13.33
2018-11-02T17:32:48.062Z,13.48
2018-11-02T17:35:19.728Z,12.53
2018-11-02T17:37:49.168Z,6.67
2018-11-02T17:40:18.532Z,8.43
2018-11-02T17:42:47.763Z,8.20
2018-11-02T17:45:17.131Z,9.00
2018-11-02T17:47:46.660Z,9.17
2018-11-02T17:50:16.187Z,9.37
2018-11-02T17:52:45.701Z,10.13
2018-11-02T17:55:15.364Z,10.10
2018-11-02T17:57:44.679Z,13.80
2018-11-02T18:00:14.626Z,14.80
2018-11-02T18:02:43.934Z,11.20
2018-11-02T18:05:13.441Z,14.63
2018-11-02T18:07:42.629Z,18.80
2018-11-02T18:10:13.448Z,13.28
2018-11-02T18:12:42.737Z,15.07
2018-11-02T18:15:13.098Z,10.43
2018-11-02T18:17:42.579Z,10.00
2018-11-02T18:20:13.983Z,5.67
2018-11-02T18:22:43.549Z,8.03
2018-11-02T18:25:13.041Z,8.13
2018-11-02T18:27:42.937Z,12.57
2018-11-02T18:30:12.803Z,10.50
2018-11-02T18:32:42.374Z,9.53
2018-11-02T18:35:12.570Z,8.87
2018-11-02T18:37:41.839Z,8.67
2018-11-02T18:40:12.679Z,7.10
2018-11-02T18:42:42.149Z,9.50
2018-11-02T18:45:15.039Z,11.17
2018-11-02T18:47:51.391Z,7.73
2018-11-02T18:50:21.885Z,7.27
2018-11-02T18:52:51.425Z,9.93
2018-11-02T18:55:21.129Z,5.90
2018-11-02T18:57:50.484Z,10.97
2018-11-02T19:00:19.931Z,10.47
2018-11-02T19:02:49.270Z,11.50
2018-11-02T19:05:19.487Z,8.90
2018-11-02T19:07:48.810Z,7.33
2018-11-02T19:10:18.065Z,7.30
2018-11-02T19:12:47.479Z,12.03
2018-11-02T19:15:17.984Z,10.60
2018-11-02T19:17:47.292Z,11.67
2018-11-02T19:20:16.753Z,9.70
2018-11-02T19:22:46.311Z,11.60
2018-11-02T19:25:16.431Z,10.77
2018-11-02T19:27:48.331Z,10.57
2018-11-02T19:30:17.658Z,10.35
2018-11-02T19:32:47.101Z,11.27
2018-11-02T19:35:16.513Z,14.87
2018-11-02T19:37:45.619Z,10.13
2018-11-02T19:40:15.923Z,11.40
2018-11-02T19:42:45.567Z,12.10
2018-11-02T19:45:15.214Z,11.65
2018-11-02T19:48:01.343Z,12.50
2018-11-02T19:50:30.705Z,14.43
2018-11-02T19:53:00.270Z,12.50
2018-11-02T19:55:29.507Z,10.00
2018-11-02T19:57:58.881Z,13.73
2018-11-02T20:00:28.045Z,14.40
2018-11-02T20:02:57.452Z,13.13
2018-11-02T20:05:26.577Z,12.90
2018-11-02T20:07:55.877Z,12.83
2018-11-02T20:10:25.194Z,18.00
2018-11-02T20:12:54.555Z,11.67
2018-11-02T20:15:23.871Z,12.50
2018-11-02T20:17:53.376Z,12.57
2018-11-02T20:20:22.553Z,14.03
2018-11-02T20:22:51.941Z,21.20
2018-11-02T20:25:21.631Z,16.57
2018-11-02T20:27:50.958Z,13.30
2018-11-02T20:30:21.501Z,13.20
2018-11-02T20:32:50.832Z,17.20
2018-11-02T20:35:20.200Z,19.03
2018-11-02T20:37:49.588Z,12.90
2018-11-02T20:40:19.638Z,13.50
2018-11-02T20:42:48.826Z,16.50
2018-11-02T20:45:18.213Z,14.50
2018-11-02T20:47:47.526Z,11.03
2018-11-02T20:50:17.123Z,13.40
2018-11-02T20:52:46.544Z,14.10
2018-11-02T20:55:16.275Z,12.53
2018-11-02T20:57:45.441Z,18.63
2018-11-02T21:00:22.237Z,13.93
2018-11-02T21:02:51.805Z,10.67
2018-11-02T21:05:21.687Z,13.88
2018-11-02T21:07:51.526Z,12.53
2018-11-02T21:10:21.356Z,13.63
2018-11-02T21:12:50.598Z,14.80
2018-11-02T21:15:21.125Z,12.87
2018-11-02T21:17:50.897Z,10.97
2018-11-02T21:20:21.636Z,12.00
2018-11-02T21:22:50.948Z,18.60
2018-11-02T21:25:20.185Z,14.53
2018-11-02T21:27:49.873Z,14.47
2018-11-02T21:30:23.696Z,17.37
2018-11-02T21:32:53.682Z,16.10
2018-11-02T21:35:23.607Z,12.93
2018-11-02T21:37:53.127Z,13.30
2018-11-02T21:40:23.760Z,9.93
2018-11-02T21:42:53.234Z,10.97
2018-11-02T21:45:23.735Z,13.97
2018-11-02T21:47:53.059Z,14.23
2018-11-02T21:50:22.675Z,15.10
2018-11-02T21:52:52.096Z,12.77
2018-11-02T21:55:21.390Z,15.13
2018-11-02T21:57:50.662Z,16.23
2018-11-02T22:00:21.344Z,12.20
2018-11-02T22:02:50.521Z,12.50
2018-11-02T22:05:19.818Z,13.30
2018-11-02T22:07:49.975Z,14.53
2018-11-02T22:10:19.550Z,17.37
2018-11-02T22:12:48.962Z,11.53
2018-11-02T22:15:18.275Z,12.27
2018-11-02T22:17:47.756Z,14.17
2018-11-02T22:20:17.357Z,15.73
2018-11-02T22:22:46.969Z,14.03
2018-11-02T22:25:16.572Z,16.77
2018-11-02T22:27:45.883Z,22.50
2018-11-02T22:30:18.315Z,16.30
2018-11-02T22:32:47.820Z,14.30
2018-11-02T22:35:17.270Z,14.70
2018-11-02T22:37:46.990Z,18.43
2018-11-02T22:40:16.234Z,15.73
2018-11-02T22:42:45.624Z,18.07
2018-11-02T22:45:15.715Z,20.63
2018-11-02T22:48:02.305Z,14.97
2018-11-02T22:50:31.810Z,13.43
2018-11-02T22:53:01.123Z,11.97
2018-11-02T22:55:30.661Z,14.67
2018-11-02T22:58:00.056Z,14.60
2018-11-02T23:00:29.415Z,17.83
2018-11-02T23:02:58.803Z,22.43
2018-11-02T23:05:28.473Z,29.90
2018-11-02T23:07:57.717Z,26.77
2018-11-02T23:10:27.143Z,23.30
2018-11-02T23:12:56.472Z,23.47
2018-11-02T23:15:25.762Z,19.90
2018-11-02T23:17:55.062Z,14.90
2018-11-02T23:20:24.672Z,16.63
2018-11-02T23:22:54.117Z,14.23
2018-11-02T23:25:23.656Z,15.70
2018-11-02T23:27:53.126Z,18.60
2018-11-02T23:30:22.289Z,18.93
2018-11-02T23:32:51.666Z,37.97
2018-11-02T23:35:21.246Z,30.57
2018-11-02T23:37:50.767Z,30.53
2018-11-02T23:40:20.069Z,34.10
2018-11-02T23:42:49.310Z,25.43
2018-11-02T23:45:18.791Z,39.13
2018-11-02T23:47:57.756Z,32.58
2018-11-02T23:50:27.019Z,34.83
2018-11-02T23:52:56.512Z,34.80
2018-11-02T23:55:25.808Z,30.30
2018-11-02T23:57:55.234Z,30.80
